Time;durP1;ratioP1;P1;durP2;ratioP2;P2;SDS_P1;SDS_P2;PMS_P1;PMS_P2;Temp;Humidity;BMP_temperature;BMP_pressure;BME280_temperature;BME280_humidity;BME280_pressure;Samples;Min_cycle;Max_cycle;Signal;HPM_P1;HPM_P2
2022/03/02 00:00:51;;;;;;;30.85;16.40;;;;;;;3.77;100.00;102788.50;10152710;28;20491;-65
2022/03/02 00:05:47;;;;;;;28.33;16.08;;;;;;;3.69;100.00;102786.06;10153778;28;20050;-65
2022/03/02 00:10:44;;;;;;;31.52;15.23;;;;;;;3.65;100.00;102784.88;10155307;28;20051;-65
2022/03/02 00:15:40;;;;;;;32.75;17.17;;;;;;;3.63;100.00;102795.09;10150960;28;20070;-66
2022/03/02 00:20:37;;;;;;;34.58;17.15;;;;;;;3.59;100.00;102795.50;10155196;28;20126;-65
2022/03/02 00:25:33;;;;;;;28.55;15.85;;;;;;;3.56;100.00;102793.25;10149170;28;20120;-67
2022/03/02 00:30:31;;;;;;;29.92;16.27;;;;;;;3.59;100.00;102802.78;10154270;28;20042;-65
2022/03/02 00:35:28;;;;;;;35.13;16.60;;;;;;;3.63;100.00;102803.19;10150739;28;20062;-65
2022/03/02 00:40:24;;;;;;;33.10;16.00;;;;;;;3.64;100.00;102805.66;10154595;28;20093;-66
2022/03/02 00:45:21;;;;;;;27.73;16.67;;;;;;;3.61;100.00;102802.59;10151039;28;20381;-64
2022/03/02 00:50:18;;;;;;;32.55;16.95;;;;;;;3.55;100.00;102794.31;10152212;28;20078;-64
2022/03/02 00:55:15;;;;;;;27.90;15.20;;;;;;;3.55;100.00;102788.91;10151330;28;20051;-64
2022/03/02 01:00:12;;;;;;;27.98;15.52;;;;;;;3.56;100.00;102781.59;10150683;28;20709;-64
2022/03/02 01:05:09;;;;;;;31.35;16.52;;;;;;;3.63;100.00;102786.97;10152400;28;20081;-65
2022/03/02 01:10:07;;;;;;;33.40;15.52;;;;;;;3.56;100.00;102787.84;10152853;28;20042;-65
2022/03/02 01:15:05;;;;;;;28.98;16.42;;;;;;;3.62;100.00;102779.88;10149373;28;20096;-66
2022/03/02 01:20:04;;;;;;;29.00;16.73;;;;;;;3.69;100.00;102775.25;10150242;28;20078;-66
2022/03/02 01:25:03;;;;;;;30.45;16.13;;;;;;;3.63;100.00;102781.56;10145894;28;20054;-63
2022/03/02 01:29:59;;;;;;;33.95;17.40;;;;;;;3.56;100.00;102777.00;10154361;28;20074;-62
2022/03/02 01:34:56;;;;;;;29.20;16.95;;;;;;;3.57;100.00;102762.47;10146365;28;20105;-62
2022/03/02 01:39:52;;;;;;;30.15;17.38;;;;;;;3.55;100.00;102759.16;10143838;28;20461;-63
2022/03/02 01:44:49;;;;;;;30.20;15.70;;;;;;;3.52;100.00;102759.56;10147983;28;20042;-64
2022/03/02 01:49:46;;;;;;;32.53;16.83;;;;;;;3.53;100.00;102750.41;10142879;28;20105;-65
2022/03/02 01:54:42;;;;;;;28.70;16.50;;;;;;;3.50;100.00;102731.91;10147971;28;20425;-65
2022/03/02 01:59:39;;;;;;;28.13;16.83;;;;;;;3.50;100.00;102728.38;10150165;28;20038;-65
2022/03/02 02:04:36;;;;;;;29.35;16.15;;;;;;;3.44;100.00;102718.47;10150892;28;20076;-64
2022/03/02 02:09:32;;;;;;;27.50;15.15;;;;;;;3.42;100.00;102726.78;10149727;28;20100;-65
2022/03/02 02:14:29;;;;;;;29.35;16.58;;;;;;;3.36;100.00;102722.25;10150318;28;20511;-65
2022/03/02 02:19:26;;;;;;;28.13;15.25;;;;;;;3.35;100.00;102728.72;10147920;28;21627;-64
2022/03/02 02:24:24;;;;;;;29.02;16.00;;;;;;;3.40;100.00;102718.06;10149267;28;20049;-64
2022/03/02 02:29:23;;;;;;;28.77;15.63;;;;;;;3.36;100.00;102727.66;10145547;28;20497;-64
2022/03/02 02:34:20;;;;;;;27.40;15.32;;;;;;;3.36;100.00;102723.09;10149236;28;20453;-64
2022/03/02 02:39:16;;;;;;;27.33;15.65;;;;;;;3.34;100.00;102730.59;10146619;28;20046;-65
2022/03/02 02:44:13;;;;;;;27.08;15.65;;;;;;;3.37;100.00;102723.91;10144721;28;20145;-64
2022/03/02 02:49:10;;;;;;;29.40;16.90;;;;;;;2.92;100.00;102716.75;10143501;28;20072;-68
2022/03/02 02:54:06;;;;;;;27.23;15.55;;;;;;;3.19;100.00;102704.94;10147236;28;20539;-68
2022/03/02 02:59:03;;;;;;;27.20;16.00;;;;;;;3.29;100.00;102705.25;10142390;28;21170;-68
2022/03/02 03:03:59;;;;;;;29.00;16.13;;;;;;;3.29;100.00;102695.25;10142375;28;20385;-66
2022/03/02 03:08:56;;;;;;;29.77;16.40;;;;;;;3.23;100.00;102684.53;10148508;28;20117;-64
2022/03/02 03:13:52;;;;;;;28.65;15.77;;;;;;;3.20;100.00;102679.53;10147804;28;20081;-64
2022/03/02 03:18:49;;;;;;;30.05;16.08;;;;;;;3.22;100.00;102680.16;10143745;28;20042;-64
2022/03/02 03:23:45;;;;;;;27.33;15.23;;;;;;;2.95;100.00;102672.25;10146264;28;20047;-65
2022/03/02 03:28:42;;;;;;;29.08;16.73;;;;;;;3.03;100.00;102674.66;10150935;28;20092;-66
2022/03/02 03:33:39;;;;;;;31.00;16.45;;;;;;;3.00;100.00;102663.50;10157094;28;20527;-65
2022/03/02 03:38:35;;;;;;;27.25;16.52;;;;;;;2.93;100.00;102664.34;10156906;28;20591;-66
2022/03/02 03:43:33;;;;;;;26.42;15.50;;;;;;;2.85;100.00;102666.47;10156159;28;20555;-65
2022/03/02 03:48:29;;;;;;;29.35;16.35;;;;;;;2.82;100.00;102666.94;10155680;28;20076;-67
2022/03/02 03:53:26;;;;;;;33.58;16.60;;;;;;;2.71;100.00;102665.75;10164681;28;20081;-67
2022/03/02 03:58:22;;;;;;;28.38;16.33;;;;;;;2.71;100.00;102661.16;10150523;28;20093;-65
2022/03/02 04:03:19;;;;;;;26.90;15.45;;;;;;;2.66;100.00;102658.28;10155669;28;20070;-66
2022/03/02 04:08:15;;;;;;;29.70;14.63;;;;;;;2.58;100.00;102655.88;10154135;28;20078;-67
2022/03/02 04:13:12;;;;;;;28.65;16.38;;;;;;;2.54;100.00;102649.22;10152948;28;20169;-66
2022/03/02 04:18:09;;;;;;;29.08;15.95;;;;;;;2.53;100.00;102653.00;10154493;28;20086;-65
2022/03/02 04:23:08;;;;;;;27.80;14.48;;;;;;;2.52;100.00;102645.91;10152761;28;20038;-64
2022/03/02 04:28:04;;;;;;;28.40;15.32;;;;;;;2.53;100.00;102647.59;10151509;28;20051;-67
2022/03/02 04:33:01;;;;;;;25.13;14.57;;;;;;;2.44;100.00;102643.47;10154536;28;20039;-66
2022/03/02 04:37:57;;;;;;;24.65;14.48;;;;;;;2.39;100.00;102643.28;10150410;28;20141;-66
2022/03/02 04:42:57;;;;;;;26.35;14.02;;;;;;;2.37;100.00;102637.25;10152734;28;20100;-64
2022/03/02 04:47:55;;;;;;;26.67;15.48;;;;;;;2.31;100.00;102636.25;10150272;28;20580;-65
2022/03/02 04:52:55;;;;;;;26.58;14.95;;;;;;;2.25;100.00;102629.00;10152432;28;20133;-67
2022/03/02 04:57:55;;;;;;;31.48;16.05;;;;;;;2.20;100.00;102613.47;10148472;28;20039;-65
2022/03/02 05:02:53;;;;;;;30.27;16.38;;;;;;;2.13;100.00;102623.47;10148382;28;20554;-66
2022/03/02 05:07:50;;;;;;;28.73;15.50;;;;;;;2.04;100.00;102632.84;10148371;28;20050;-65
2022/03/02 05:12:47;;;;;;;27.42;14.57;;;;;;;1.93;100.00;102630.81;10145457;28;20081;-66
2022/03/02 05:17:47;;;;;;;27.23;15.02;;;;;;;1.87;100.00;102617.13;10146608;28;20046;-65
2022/03/02 05:22:51;;;;;;;31.00;17.13;;;;;;;1.79;100.00;102614.69;10125213;28;20066;-69
2022/03/02 05:27:50;;;;;;;29.05;16.35;;;;;;;1.74;100.00;102611.81;10135558;28;20484;-68
2022/03/02 05:32:48;;;;;;;27.88;16.02;;;;;;;1.71;100.00;102611.38;10144497;28;20043;-74
2022/03/02 05:37:45;;;;;;;25.33;14.95;;;;;;;1.73;100.00;102610.13;10153876;28;20102;-74
2022/03/02 05:42:42;;;;;;;31.17;17.48;;;;;;;1.74;100.00;102605.56;10152723;28;20450;-74
2022/03/02 05:47:39;;;;;;;29.70;15.38;;;;;;;1.76;100.00;102617.78;10148335;28;20137;-74
2022/03/02 05:52:36;;;;;;;32.40;18.02;;;;;;;1.75;100.00;102624.25;10141399;28;20535;-74
2022/03/02 05:57:33;;;;;;;30.83;17.30;;;;;;;1.78;100.00;102634.59;10145077;28;20050;-74
2022/03/02 06:02:30;;;;;;;28.63;16.73;;;;;;;1.67;100.00;102636.09;10135461;28;20093;-70
2022/03/02 06:07:27;;;;;;;31.58;17.70;;;;;;;1.56;100.00;102638.59;10144292;28;20493;-73
2022/03/02 06:12:24;;;;;;;32.70;17.05;;;;;;;1.43;100.00;102637.56;10160049;28;20142;-73
2022/03/02 06:17:21;;;;;;;33.42;18.38;;;;;;;1.50;100.00;102642.13;10145675;28;20050;-73
2022/03/02 06:22:23;;;;;;;33.95;18.75;;;;;;;1.64;100.00;102632.97;10137129;28;20077;-70
2022/03/02 06:27:21;;;;;;;31.92;17.70;;;;;;;1.69;100.00;102646.66;10145113;28;20112;-68
2022/03/02 06:32:18;;;;;;;33.35;18.27;;;;;;;1.66;100.00;102637.13;10139091;28;20042;-67
2022/03/02 06:37:15;;;;;;;32.50;19.00;;;;;;;1.66;100.00;102649.78;10144055;28;20121;-68
2022/03/02 06:42:17;;;;;;;32.58;18.02;;;;;;;1.42;100.00;102652.09;10143714;28;20486;-73
2022/03/02 06:47:18;;;;;;;27.98;16.73;;;;;;;1.46;100.00;102653.34;10141756;28;20061;-73
2022/03/02 06:52:18;;;;;;;40.13;18.58;;;;;;;1.44;100.00;102666.19;10141776;28;20054;-72
2022/03/02 06:57:19;;;;;;;34.58;17.48;;;;;;;1.47;100.00;102671.16;10132381;28;20051;-72
2022/03/02 07:02:21;;;;;;;34.40;18.13;;;;;;;1.60;100.00;102675.72;10114728;28;20050;-73
2022/03/02 07:07:18;;;;;;;31.95;17.98;;;;;;;1.58;100.00;102666.16;10151912;28;20125;-72
2022/03/02 07:12:16;;;;;;;33.13;17.33;;;;;;;1.61;100.00;102676.56;10149362;28;20501;-72
2022/03/02 07:17:13;;;;;;;31.27;17.50;;;;;;;1.66;100.00;102674.03;10155045;28;20108;-73
2022/03/02 07:22:16;;;;;;;32.55;18.35;;;;;;;1.76;100.00;102674.44;10154910;28;20157;-73
2022/03/02 07:27:15;;;;;;;32.15;16.15;;;;;;;1.83;100.00;102675.28;10153000;28;20046;-74
2022/03/02 07:32:14;;;;;;;31.42;18.05;;;;;;;1.87;100.00;102671.09;10154576;28;20579;-73
2022/03/02 07:37:10;;;;;;;35.92;18.77;;;;;;;1.91;100.00;102673.38;10149214;28;20046;-74
2022/03/02 07:42:08;;;;;;;32.95;17.50;;;;;;;1.98;100.00;102666.09;10149148;28;20146;-74
2022/03/02 07:47:04;;;;;;;30.70;17.98;;;;;;;2.02;100.00;102668.16;10151956;28;20042;-75
2022/03/02 07:52:05;;;;;;;34.97;18.33;;;;;;;2.17;100.00;102654.38;10152602;28;20386;-74
2022/03/02 07:57:01;;;;;;;35.08;18.30;;;;;;;2.24;100.00;102649.78;10150201;28;20201;-73
2022/03/02 08:01:59;;;;;;;34.20;17.17;;;;;;;2.28;100.00;102651.03;10152608;28;20081;-73
2022/03/02 08:06:55;;;;;;;28.00;16.73;;;;;;;2.34;100.00;102648.50;10151410;28;20051;-73
2022/03/02 08:11:52;;;;;;;30.00;16.60;;;;;;;2.44;100.00;102659.69;10140112;28;20096;-73
2022/03/02 08:16:48;;;;;;;32.40;16.73;;;;;;;2.60;100.00;102675.38;10147681;28;20062;-73
2022/03/02 08:21:50;;;;;;;29.15;14.75;;;;;;;2.69;100.00;102681.34;10157228;28;20397;-72
2022/03/02 08:26:49;;;;;;;32.22;16.08;;;;;;;2.82;100.00;102672.34;10140943;28;20369;-73
2022/03/02 08:31:47;;;;;;;28.80;15.63;;;;;;;2.73;100.00;102669.88;10157451;28;20401;-73
2022/03/02 08:36:44;;;;;;;27.27;14.90;;;;;;;2.97;100.00;102659.34;10135763;28;20129;-73
2022/03/02 08:41:41;;;;;;;23.27;13.85;;;;;;;3.14;100.00;102663.16;10129924;28;20141;-74
2022/03/02 08:46:37;;;;;;;30.05;15.27;;;;;;;3.30;100.00;102669.06;10145860;28;20055;-73
2022/03/02 08:51:35;;;;;;;31.63;15.48;;;;;;;3.53;100.00;102669.28;10130049;28;20070;-74
2022/03/02 08:56:35;;;;;;;24.58;14.52;;;;;;;3.74;100.00;102678.84;10135126;28;20660;-74
2022/03/02 09:01:32;;;;;;;26.08;15.23;;;;;;;4.06;100.00;102672.47;10130889;28;20117;-73
2022/03/02 09:06:30;;;;;;;26.92;14.07;;;;;;;4.24;100.00;102661.63;10145134;28;20582;-73
2022/03/02 09:11:27;;;;;;;26.25;14.05;;;;;;;4.51;100.00;102664.00;10155503;28;20051;-73
2022/03/02 09:16:23;;;;;;;26.27;14.45;;;;;;;4.81;100.00;102667.50;10137168;28;20081;-73
2022/03/02 09:21:21;;;;;;;25.02;13.35;;;;;;;5.10;100.00;102656.84;10118740;28;20050;-73
2022/03/02 09:26:18;;;;;;;23.15;13.57;;;;;;;5.23;100.00;102651.19;10158215;28;20664;-73
2022/03/02 09:31:17;;;;;;;24.27;13.48;;;;;;;5.40;100.00;102651.31;10154451;28;20112;-73
2022/03/02 09:36:19;;;;;;;27.23;13.07;;;;;;;5.65;100.00;102648.38;10131282;28;20050;-73
2022/03/02 09:41:48;;;;;;;23.40;13.52;;;;;;;5.91;100.00;102646.22;10124587;28;20051;-73
2022/03/02 09:46:50;;;;;;;25.30;12.77;;;;;;;6.07;95.27;102645.50;10134377;28;20042;-73
2022/03/02 09:51:51;;;;;;;20.87;12.37;;;;;;;6.42;91.61;102641.00;10147484;28;20054;-73
2022/03/02 09:56:51;;;;;;;20.67;11.30;;;;;;;6.73;85.92;102628.81;10134783;28;20080;-73
2022/03/02 10:01:50;;;;;;;20.38;11.43;;;;;;;6.94;81.29;102617.22;10152342;28;20050;-73
2022/03/02 10:06:49;;;;;;;20.30;11.25;;;;;;;7.11;71.29;102616.41;10124451;28;20046;-73
2022/03/02 10:11:46;;;;;;;21.50;11.60;;;;;;;7.67;74.27;102603.59;10124828;28;20101;-73
2022/03/02 10:16:44;;;;;;;19.60;10.23;;;;;;;8.26;69.04;102610.28;10124893;28;20186;-72
2022/03/02 10:22:12;;;;;;;21.02;11.15;;;;;;;8.63;63.79;102605.81;10154118;28;20050;-73
2022/03/02 10:27:29;;;;;;;21.52;11.57;;;;;;;8.77;61.49;102598.03;10150950;28;20101;-74
2022/03/02 10:32:32;;;;;;;23.48;12.20;;;;;;;8.79;58.93;102603.22;10153594;28;20046;-73
2022/03/02 10:37:29;;;;;;;;;;;;;;;8.68;63.11;102598.75;10142012;28;20038;-74
2022/03/02 10:42:31;;;;;;;21.55;11.93;;;;;;;8.71;60.07;102601.78;10152581;28;20491;-73
2022/03/02 10:47:28;;;;;;;21.55;12.10;;;;;;;8.85;60.81;102604.91;10143439;28;20504;-73
2022/03/02 10:52:26;;;;;;;21.42;10.70;;;;;;;9.04;60.76;102600.69;10152675;28;20054;-72
2022/03/02 10:57:25;;;;;;;19.95;11.38;;;;;;;9.24;56.30;102600.03;10146716;28;20046;-73
2022/03/02 11:02:23;;;;;;;18.75;10.63;;;;;;;9.14;50.27;102588.19;10132874;28;20109;-73
2022/03/02 11:07:20;;;;;;;20.13;10.98;;;;;;;9.43;56.38;102575.84;10133589;28;20056;-72
2022/03/02 11:12:20;;;;;;;25.70;12.00;;;;;;;9.55;57.07;102588.47;10146001;28;20129;-73
2022/03/02 11:17:17;;;;;;;18.92;11.68;;;;;;;9.79;52.57;102584.19;10143460;28;20050;-73
2022/03/02 11:22:23;;;;;;;18.33;10.60;;;;;;;9.87;49.47;102585.59;10138972;28;20046;-73
2022/03/02 11:27:30;;;;;;;18.52;11.13;;;;;;;10.05;49.91;102576.94;10130836;28;20050;-73
2022/03/02 11:32:28;;;;;;;20.50;11.95;;;;;;;9.57;48.59;102578.91;10137399;28;20057;-73
2022/03/02 11:37:27;;;;;;;17.80;10.98;;;;;;;9.82;51.17;102572.75;10132581;28;20074;-72
2022/03/02 11:42:35;;;;;;;20.88;12.75;;;;;;;9.97;50.27;102565.69;10138920;28;20050;-73
2022/03/02 11:47:39;;;;;;;17.92;11.00;;;;;;;10.06;51.18;102555.88;10138274;28;20054;-73
2022/03/02 11:52:43;;;;;;;21.33;11.63;;;;;;;9.93;49.39;102556.38;10138718;28;20542;-74
2022/03/02 11:57:42;;;;;;;17.67;11.30;;;;;;;10.48;50.27;102546.69;10149183;28;20483;-74
2022/03/02 12:03:08;;;;;;;18.98;12.05;;;;;;;10.76;51.00;102552.69;10150408;28;20058;-73
2022/03/02 12:08:09;;;;;;;19.42;11.68;;;;;;;10.50;47.52;102549.97;10149241;28;20425;-73
2022/03/02 12:13:06;;;;;;;19.23;11.60;;;;;;;10.89;49.55;102541.22;10147779;28;20046;-73
2022/03/02 12:18:10;;;;;;;19.70;11.80;;;;;;;11.18;47.88;102526.91;10150273;28;20093;-73
2022/03/02 12:23:07;;;;;;;19.55;12.05;;;;;;;11.29;47.29;102517.56;10146387;28;20058;-73
2022/03/02 12:28:10;;;;;;;21.90;13.13;;;;;;;11.34;46.21;102503.88;10155490;28;20054;-74
2022/03/02 12:33:06;;;;;;;18.42;11.75;;;;;;;12.18;45.80;102501.25;10140120;28;20074;-73
2022/03/02 12:38:07;;;;;;;20.38;13.02;;;;;;;12.91;46.79;102502.28;10146624;28;20050;-73
2022/03/02 12:43:04;;;;;;;21.27;13.25;;;;;;;13.62;43.10;102489.66;10156265;28;20054;-73
2022/03/02 12:48:01;;;;;;;23.67;13.30;;;;;;;14.32;40.28;102488.94;10146299;28;20050;-73
2022/03/02 12:52:58;;;;;;;18.80;12.38;;;;;;;15.07;41.56;102478.81;10151027;28;20101;-74
2022/03/02 12:57:57;;;;;;;19.17;11.93;;;;;;;15.71;39.98;102471.44;10146732;28;20133;-73
2022/03/02 13:02:56;;;;;;;20.02;12.82;;;;;;;16.79;43.27;102466.03;10130684;28;20056;-76
2022/03/02 13:08:11;;;;;;;20.35;13.10;;;;;;;17.01;36.17;102452.16;10147477;28;20062;-73
2022/03/02 13:13:09;;;;;;;18.27;12.73;;;;;;;17.69;35.72;102454.59;10145054;28;20471;-72
2022/03/02 13:18:08;;;;;;;19.75;12.50;;;;;;;17.68;33.65;102452.94;10148936;28;20042;-73
2022/03/02 13:23:19;;;;;;;18.33;12.55;;;;;;;18.06;33.21;102444.03;10149005;28;20550;-73
2022/03/02 13:28:15;;;;;;;19.83;13.80;;;;;;;17.87;32.26;102438.84;10144106;28;20771;-72
2022/03/02 13:33:11;;;;;;;20.05;13.88;;;;;;;17.96;31.31;102436.06;10148185;28;20137;-72
2022/03/02 13:38:17;;;;;;;19.85;13.20;;;;;;;18.12;31.31;102428.06;10119265;28;20277;-72
2022/03/02 13:43:14;;;;;;;18.10;11.73;;;;;;;18.38;32.10;102430.78;10144870;28;20050;-72
2022/03/02 13:48:28;;;;;;;21.17;13.57;;;;;;;18.03;31.70;102425.28;10131365;28;20046;-71
2022/03/02 13:53:35;;;;;;;18.20;12.02;;;;;;;18.60;30.79;102419.47;10133944;28;20093;-72
2022/03/02 13:58:34;;;;;;;19.55;13.85;;;;;;;18.92;29.18;102422.81;10126313;28;20780;-72
2022/03/02 14:03:33;;;;;;;22.27;14.35;;;;;;;18.45;28.63;102415.31;10132264;28;20042;-72
2022/03/02 14:08:30;;;;;;;20.67;13.55;;;;;;;19.08;31.36;102415.53;10112495;28;20054;-72
2022/03/02 14:13:33;;;;;;;19.60;13.55;;;;;;;18.34;29.13;102407.69;10127815;28;20046;-71
2022/03/02 14:18:30;;;;;;;20.85;13.77;;;;;;;18.64;31.05;102411.31;10127000;28;20081;-72
2022/03/02 14:23:26;;;;;;;20.80;13.00;;;;;;;18.43;29.07;102408.47;10115748;28;20042;-72
2022/03/02 14:28:23;;;;;;;20.38;12.30;;;;;;;18.67;31.37;102405.91;10149383;28;20073;-72
2022/03/02 14:33:21;;;;;;;18.77;12.73;;;;;;;18.54;29.78;102398.63;10151832;28;20141;-71
2022/03/02 14:38:17;;;;;;;19.73;12.90;;;;;;;18.07;29.92;102401.38;10140854;28;20062;-72
2022/03/02 14:43:19;;;;;;;22.70;13.60;;;;;;;17.73;31.04;102393.88;10129791;28;20050;-71
2022/03/02 14:48:18;;;;;;;22.98;13.48;;;;;;;17.52;30.87;102388.19;10143687;28;20087;-72
2022/03/02 14:53:16;;;;;;;22.20;14.13;;;;;;;17.70;31.00;102384.28;10134111;28;20106;-72
2022/03/02 14:58:31;;;;;;;19.45;12.52;;;;;;;17.76;31.16;102371.91;10133441;28;20115;-72
2022/03/02 15:03:31;;;;;;;21.45;13.43;;;;;;;17.48;29.88;102376.16;10134102;28;20050;-73
2022/03/02 15:08:33;;;;;;;19.75;13.70;;;;;;;17.22;31.36;102375.00;10130564;28;20050;-69
2022/03/02 15:18:56;;;;;;;21.67;13.55;;;;;;;16.92;32.51;102359.31;10141887;28;20571;-75
2022/03/02 15:23:52;;;;;;;20.10;13.57;;;;;;;16.39;33.51;102358.28;10143187;28;20582;-71
2022/03/02 15:29:05;;;;;;;20.40;13.73;;;;;;;15.72;34.99;102354.47;10148421;28;20070;-73
2022/03/02 15:34:19;;;;;;;24.27;14.83;;;;;;;14.97;35.53;102350.38;10149109;28;20085;-68
2022/03/02 15:39:31;;;;;;;22.52;13.55;;;;;;;14.55;36.77;102357.00;10129609;28;20562;-70
2022/03/02 15:44:29;;;;;;;20.88;13.88;;;;;;;14.17;37.54;102346.13;10143646;28;20057;-71
2022/03/02 15:49:49;;;;;;;23.10;14.40;;;;;;;13.71;39.78;102344.16;10141341;28;20077;-69
2022/03/02 15:54:57;;;;;;;26.65;16.00;;;;;;;13.48;40.04;102341.19;10137241;28;20116;-71
2022/03/02 15:59:54;;;;;;;24.92;16.05;;;;;;;13.33;44.19;102338.69;10146061;28;20093;-72
2022/03/02 16:05:12;;;;;;;26.65;16.15;;;;;;;12.77;45.34;102338.28;10142491;28;20046;-71
2022/03/02 16:10:09;;;;;;;23.88;15.35;;;;;;;12.93;45.51;102335.34;10142315;28;20120;-71
2022/03/02 16:15:06;;;;;;;26.70;16.67;;;;;;;12.64;46.09;102338.97;10144451;28;20066;-69
2022/03/02 16:20:14;;;;;;;29.02;17.13;;;;;;;12.40;47.47;102328.81;10144263;28;20140;-73
2022/03/02 16:25:22;;;;;;;28.45;16.23;;;;;;;12.03;52.76;102329.47;10144784;28;20050;-71
2022/03/02 16:30:20;;;;;;;26.90;16.35;;;;;;;11.79;57.78;102329.38;10126922;28;20355;-72
2022/03/02 16:35:23;;;;;;;29.30;18.63;;;;;;;11.59;59.94;102324.88;10142958;28;20050;-72
2022/03/02 16:40:20;;;;;;;33.15;19.83;;;;;;;11.31;64.89;102329.19;10147322;28;20925;-73
2022/03/02 16:45:18;;;;;;;34.88;20.85;;;;;;;10.98;69.83;102331.56;10145573;28;20476;-72
2022/03/02 16:50:15;;;;;;;34.13;20.10;;;;;;;10.87;73.77;102335.44;10142004;28;20100;-73
2022/03/02 16:55:14;;;;;;;36.38;21.23;;;;;;;10.61;77.21;102332.78;10143657;28;20503;-73
2022/03/02 17:00:14;;;;;;;32.75;20.38;;;;;;;10.40;80.44;102336.69;10146742;28;20081;-73
2022/03/02 17:05:12;;;;;;;34.70;20.27;;;;;;;10.20;83.20;102332.84;10139752;28;20088;-73
2022/03/02 17:10:09;;;;;;;33.55;18.60;;;;;;;10.03;86.69;102338.63;10140310;28;20468;-71
2022/03/02 17:15:08;;;;;;;35.28;20.63;;;;;;;9.81;86.94;102338.06;10135964;28;20760;-72
2022/03/02 17:20:07;;;;;;;37.25;21.55;;;;;;;9.59;88.49;102335.59;10131188;28;20493;-71
2022/03/02 17:25:06;;;;;;;35.15;21.67;;;;;;;9.37;90.90;102336.66;10150030;28;20108;-71
2022/03/02 17:30:06;;;;;;;37.20;20.73;;;;;;;9.11;93.61;102343.13;10133955;28;20074;-71
2022/03/02 17:35:05;;;;;;;31.08;18.77;;;;;;;8.91;94.34;102342.00;10141882;28;20839;-71
2022/03/02 17:40:04;;;;;;;35.70;20.85;;;;;;;8.79;96.13;102346.81;10131403;28;20058;-69
2022/03/02 17:45:02;;;;;;;36.97;21.42;;;;;;;8.76;97.58;102342.72;10133207;28;20484;-73
2022/03/02 17:49:58;;;;;;;40.65;22.83;;;;;;;8.58;98.56;102340.47;10131283;28;20050;-70
2022/03/02 17:54:55;;;;;;;38.05;20.90;;;;;;;8.46;98.78;102343.38;10123021;28;20046;-71
2022/03/02 17:59:52;;;;;;;39.55;21.33;;;;;;;8.25;100.00;102349.78;10138897;28;20460;-71
2022/03/02 18:04:49;;;;;;;39.90;22.13;;;;;;;8.25;100.00;102347.03;10123784;28;20043;-71
2022/03/02 18:09:45;;;;;;;37.08;22.02;;;;;;;8.18;100.00;102353.53;10131366;28;20046;-71
2022/03/02 18:14:42;;;;;;;39.88;22.25;;;;;;;8.08;100.00;102337.13;10138175;28;20243;-71
2022/03/02 18:19:44;;;;;;;39.47;21.52;;;;;;;8.03;100.00;102345.25;10134663;28;20054;-71
2022/03/02 18:24:41;;;;;;;38.55;22.70;;;;;;;7.86;100.00;102344.56;10135335;28;20050;-71
2022/03/02 18:29:38;;;;;;;40.15;23.65;;;;;;;7.80;100.00;102346.44;10129454;28;20054;-70
2022/03/02 18:34:37;;;;;;;40.60;23.20;;;;;;;7.75;100.00;102343.66;10131022;28;20046;-71
2022/03/02 18:39:34;;;;;;;42.40;23.90;;;;;;;7.62;100.00;102353.06;10129277;28;20470;-70
2022/03/02 18:44:31;;;;;;;48.88;25.48;;;;;;;7.48;100.00;102354.56;10132348;28;20104;-71
2022/03/02 18:49:30;;;;;;;48.10;23.50;;;;;;;7.34;100.00;102354.97;10134839;28;20804;-70
2022/03/02 18:54:28;;;;;;;45.17;23.42;;;;;;;7.04;100.00;102351.91;10133322;28;20101;-71
2022/03/02 18:59:24;;;;;;;46.17;24.50;;;;;;;7.06;100.00;102349.78;10137253;28;20101;-70
2022/03/02 19:04:21;;;;;;;47.08;24.80;;;;;;;6.91;100.00;102351.19;10140638;28;20074;-71
2022/03/02 19:09:21;;;;;;;50.72;28.67;;;;;;;6.89;100.00;102364.25;10140424;28;20797;-71
2022/03/02 19:14:19;;;;;;;50.50;26.38;;;;;;;6.74;100.00;102364.03;10137483;28;20042;-71
2022/03/02 19:19:17;;;;;;;51.17;27.70;;;;;;;6.69;100.00;102361.25;10138897;28;20050;-70
2022/03/02 19:24:14;;;;;;;47.63;26.20;;;;;;;6.41;100.00;102357.63;10128089;28;20133;-71
2022/03/02 19:29:11;;;;;;;44.75;25.25;;;;;;;6.36;100.00;102370.28;10136262;28;20054;-70
2022/03/02 19:34:09;;;;;;;45.47;28.65;;;;;;;6.41;100.00;102368.50;10129383;28;20078;-71
2022/03/02 19:44:21;;;;;;;49.85;27.58;;;;;;;6.17;100.00;102372.44;10135680;28;20054;-71
2022/03/02 19:49:22;;;;;;;49.30;26.77;;;;;;;5.98;100.00;102361.00;10139249;28;20492;-71
2022/03/02 19:54:21;;;;;;;53.97;29.30;;;;;;;5.83;100.00;102361.56;10142401;28;20054;-71
2022/03/02 19:59:18;;;;;;;49.40;27.77;;;;;;;5.61;100.00;102364.16;10140965;28;20077;-71
2022/03/02 20:04:15;;;;;;;53.33;27.63;;;;;;;5.52;100.00;102369.13;10136973;28;20100;-71
2022/03/02 20:09:12;;;;;;;50.38;28.25;;;;;;;5.43;100.00;102362.47;10138375;28;20046;-71
2022/03/02 20:14:08;;;;;;;53.92;29.10;;;;;;;5.35;100.00;102360.16;10153277;28;20442;-71
2022/03/02 20:19:04;;;;;;;53.08;29.08;;;;;;;5.37;100.00;102363.44;10128870;28;20088;-71
2022/03/02 20:24:03;;;;;;;55.33;30.13;;;;;;;5.20;100.00;102357.97;10141652;28;20058;-71
2022/03/02 20:29:00;;;;;;;60.08;30.30;;;;;;;5.18;100.00;102350.06;10144585;28;20700;-71
2022/03/02 20:33:57;;;;;;;50.08;27.58;;;;;;;5.02;100.00;102357.06;10154386;28;20109;-71
2022/03/02 20:38:53;;;;;;;49.78;29.73;;;;;;;4.97;100.00;102353.44;10143722;28;20603;-70
2022/03/02 20:43:50;;;;;;;53.88;30.00;;;;;;;4.93;100.00;102352.28;10148030;28;20058;-71
2022/03/02 20:48:47;;;;;;;56.40;30.42;;;;;;;4.75;100.00;102356.78;10150369;28;20129;-71
2022/03/02 20:53:43;;;;;;;55.00;31.25;;;;;;;4.74;100.00;102355.16;10149514;28;20169;-71
2022/03/02 20:58:42;;;;;;;57.05;29.73;;;;;;;4.64;100.00;102354.91;10139152;28;20572;-71
2022/03/02 21:03:43;;;;;;;59.75;31.20;;;;;;;4.59;100.00;102346.69;10144007;28;20436;-72
2022/03/02 21:08:40;;;;;;;57.80;31.83;;;;;;;4.46;100.00;102346.94;10130862;28;20054;-71
2022/03/02 21:13:37;;;;;;;58.25;31.70;;;;;;;4.34;100.00;102334.22;10152820;28;20149;-71
2022/03/02 21:18:34;;;;;;;56.88;30.08;;;;;;;4.29;100.00;102336.81;10145931;28;20042;-70
2022/03/02 21:23:30;;;;;;;61.45;32.55;;;;;;;4.25;100.00;102335.66;10144361;28;20061;-70
2022/03/02 21:28:27;;;;;;;62.13;33.20;;;;;;;4.13;100.00;102326.69;10137037;28;20159;-69
2022/03/02 21:33:26;;;;;;;64.53;32.95;;;;;;;4.12;100.00;102327.75;10142085;28;20100;-67
2022/03/02 21:38:23;;;;;;;61.17;33.30;;;;;;;4.12;100.00;102319.63;10139715;28;20599;-68
2022/03/02 21:43:19;;;;;;;65.43;32.95;;;;;;;4.12;100.00;102331.28;10151814;28;20137;-68
2022/03/02 21:48:15;;;;;;;57.42;31.02;;;;;;;4.26;100.00;102336.47;10147449;28;20043;-69
2022/03/02 21:53:12;;;;;;;57.85;32.60;;;;;;;4.31;100.00;102328.44;10139355;28;20058;-68
2022/03/02 21:58:09;;;;;;;64.90;34.03;;;;;;;4.32;100.00;102317.41;10144839;28;20117;-69
2022/03/02 22:03:06;;;;;;;62.30;33.63;;;;;;;4.15;100.00;102319.97;10143687;28;20105;-69
2022/03/02 22:08:03;;;;;;;63.88;32.95;;;;;;;4.08;100.00;102330.09;10140826;28;20133;-68
2022/03/02 22:12:59;;;;;;;65.65;33.80;;;;;;;4.07;100.00;102325.75;10144007;28;20113;-68
2022/03/02 22:17:56;;;;;;;60.03;33.30;;;;;;;4.00;100.00;102317.75;10146891;28;20050;-68
2022/03/02 22:22:53;;;;;;;66.03;35.10;;;;;;;3.93;100.00;102319.72;10153212;28;20046;-68
2022/03/02 22:27:49;;;;;;;64.22;33.53;;;;;;;3.90;100.00;102317.50;10148712;28;20108;-68
2022/03/02 22:32:46;;;;;;;63.58;33.15;;;;;;;3.83;100.00;102319.50;10152688;28;20046;-68